createdAt,value
2023-05-22T03:01:34.915Z,12.19
2023-05-22T03:04:03.805Z,12.21
2023-05-22T03:06:32.676Z,12.25
2023-05-22T03:09:04.248Z,12.28
2023-05-22T03:11:33.071Z,12.31
2023-05-22T03:14:01.987Z,12.32
2023-05-22T03:16:31.091Z,12.35
2023-05-22T03:19:10.432Z,12.37
2023-05-22T03:21:39.706Z,12.42
2023-05-22T03:24:08.599Z,12.48
2023-05-22T03:26:38.094Z,12.52
2023-05-22T03:29:09.434Z,12.56
2023-05-22T03:31:40.835Z,12.61
2023-05-22T03:34:12.554Z,12.65
2023-05-22T03:36:41.650Z,12.71
2023-05-22T03:39:10.406Z,12.77
2023-05-22T03:41:42.717Z,12.87
2023-05-22T03:44:11.649Z,12.98
2023-05-22T03:46:40.529Z,13.06
2023-05-22T03:49:09.669Z,13.13
2023-05-22T03:51:38.644Z,13.21
2023-05-22T03:54:07.770Z,13.25
2023-05-22T03:56:37.813Z,13.32
2023-05-22T03:59:06.537Z,13.38
2023-05-22T04:01:35.276Z,13.42
2023-05-22T04:04:06.137Z,13.44
2023-05-22T04:06:34.633Z,13.51
2023-05-22T04:09:03.377Z,13.61
2023-05-22T04:11:32.637Z,13.73
2023-05-22T04:14:03.976Z,13.93
2023-05-22T04:16:34.053Z,14.52
2023-05-22T04:19:03.948Z,15.41
2023-05-22T04:21:36.473Z,15.98
2023-05-22T04:24:07.537Z,16.64
2023-05-22T04:26:36.779Z,17.50
2023-05-22T04:29:11.032Z,18.52
2023-05-22T04:31:40.360Z,19.62
2023-05-22T04:34:13.085Z,20.55
2023-05-22T04:36:41.831Z,20.97
2023-05-22T04:39:10.759Z,21.17
2023-05-22T04:41:41.060Z,21.43
2023-05-22T04:44:10.214Z,22.39
2023-05-22T04:46:39.026Z,22.86
2023-05-22T04:49:09.266Z,23.02
2023-05-22T04:51:38.274Z,24.01
2023-05-22T04:54:07.301Z,24.64
2023-05-22T04:56:37.375Z,25.09
2023-05-22T04:59:09.699Z,25.65
2023-05-22T05:01:40.563Z,26.19
2023-05-22T05:04:10.355Z,26.82
2023-05-22T05:06:39.118Z,27.32
2023-05-22T05:09:08.416Z,28.07
2023-05-22T05:11:38.639Z,29.08
2023-05-22T05:14:07.343Z,30.12
2023-05-22T05:16:36.664Z,30.98
2023-05-22T05:19:05.645Z,31.73
2023-05-22T05:21:36.178Z,32.40
2023-05-22T05:24:05.208Z,32.96
2023-05-22T05:26:33.334Z,33.42
2023-05-22T05:29:02.268Z,33.57
2023-05-22T05:31:38.646Z,33.35
2023-05-22T05:34:15.462Z,33.20
2023-05-22T05:36:57.672Z,33.32
2023-05-22T05:39:27.976Z,33.46
2023-05-22T05:41:57.990Z,33.57
2023-05-22T05:44:27.450Z,33.97
2023-05-22T05:46:56.362Z,34.45
2023-05-22T05:49:24.950Z,34.84
2023-05-22T05:51:54.015Z,35.15
2023-05-22T05:54:23.355Z,35.13
2023-05-22T05:56:54.498Z,35.10
2023-05-22T05:59:22.876Z,35.10
2023-05-22T06:02:00.239Z,34.80
2023-05-22T06:04:30.698Z,33.93
2023-05-22T06:06:59.619Z,32.73
2023-05-22T06:09:35.605Z,31.51
2023-05-22T06:12:30.843Z,30.28
2023-05-22T06:14:59.619Z,29.36
2023-05-22T06:17:28.239Z,28.62
2023-05-22T06:19:57.925Z,27.91
2023-05-22T06:22:26.358Z,27.33
2023-05-22T06:24:55.111Z,26.86
2023-05-22T06:27:24.688Z,26.52
2023-05-22T06:38:29.107Z,25.20
2023-05-22T06:40:57.825Z,24.97
2023-05-22T06:43:27.896Z,24.77
2023-05-22T06:46:01.704Z,24.61
2023-05-22T06:48:49.213Z,24.46
2023-05-22T06:51:25.122Z,24.33
2023-05-22T06:53:58.457Z,24.20
2023-05-22T06:56:32.252Z,24.15
2023-05-22T06:59:06.263Z,24.15
2023-05-22T07:40:08.173Z,24.12
2023-05-22T07:42:38.707Z,24.17
2023-05-22T07:45:09.995Z,24.25
2023-05-22T07:47:40.109Z,24.29
2023-05-22T07:50:09.610Z,24.37
2023-05-22T07:52:40.277Z,24.38
2023-05-22T07:55:09.782Z,24.36
2023-05-22T07:57:40.021Z,24.32
2023-05-22T08:00:17.598Z,24.25
2023-05-22T08:02:47.065Z,24.22
2023-05-22T08:05:15.761Z,24.13
2023-05-22T08:07:44.970Z,24.04
2023-05-22T08:10:17.675Z,23.97
2023-05-22T08:12:46.751Z,23.88
2023-05-22T08:15:16.054Z,23.82
2023-05-22T08:17:44.915Z,23.80
2023-05-22T08:20:14.118Z,23.78
2023-05-22T08:22:42.908Z,23.77
2023-05-22T08:25:11.957Z,23.76
2023-05-22T08:27:41.076Z,23.76
2023-05-22T08:30:10.060Z,23.77
2023-05-22T08:32:38.953Z,23.78
2023-05-22T08:35:08.375Z,23.80
2023-05-22T08:37:37.831Z,23.81
2023-05-22T08:40:09.250Z,23.84
2023-05-22T08:42:38.292Z,23.84
2023-05-22T08:45:07.708Z,23.87
2023-05-22T08:47:37.735Z,23.92
2023-05-22T08:50:07.637Z,23.97
2023-05-22T08:52:52.343Z,23.98
2023-05-22T08:55:21.792Z,23.94
2023-05-22T08:57:51.418Z,23.85
2023-05-22T09:00:20.784Z,23.79
2023-05-22T09:02:50.317Z,23.77
2023-05-22T09:05:20.314Z,23.76
2023-05-22T09:07:50.621Z,23.86
2023-05-22T09:10:21.927Z,23.99
2023-05-22T09:13:09.529Z,24.03
2023-05-22T09:15:38.329Z,24.14
2023-05-22T09:18:35.025Z,24.29
2023-05-22T09:21:21.681Z,24.31
2023-05-22T09:24:22.638Z,24.36
2023-05-22T09:26:57.683Z,24.42
2023-05-22T09:29:50.297Z,24.50
2023-05-22T09:32:22.382Z,24.49
2023-05-22T09:34:56.001Z,24.46
2023-05-22T09:37:30.329Z,24.46
2023-05-22T09:39:58.994Z,24.46
2023-05-22T09:42:31.124Z,24.41
2023-05-22T09:45:08.790Z,24.39
2023-05-22T09:47:37.613Z,24.41
2023-05-22T09:50:08.004Z,24.42
2023-05-22T09:52:38.048Z,24.40
2023-05-22T09:55:07.712Z,24.40
2023-05-22T09:57:46.352Z,24.45
2023-05-22T10:00:20.012Z,24.56
2023-05-22T10:02:51.072Z,24.69
2023-05-22T10:05:24.405Z,24.82
2023-05-22T10:07:56.681Z,24.84
2023-05-22T10:10:26.193Z,24.76
2023-05-22T10:13:01.752Z,24.68
2023-05-22T10:15:31.290Z,24.62
2023-05-22T10:18:00.484Z,24.37
2023-05-22T10:20:29.816Z,24.13
2023-05-22T10:22:59.391Z,24.06
2023-05-22T10:25:28.402Z,24.02
2023-05-22T10:27:57.723Z,23.93
2023-05-22T10:30:29.365Z,23.76
2023-05-22T10:33:26.002Z,23.48
2023-05-22T11:40:33.554Z,22.83
2023-05-22T11:43:01.829Z,22.89
2023-05-22T11:45:29.244Z,23.04
2023-05-22T11:47:57.319Z,23.25
2023-05-22T11:50:40.332Z,23.47
2023-05-22T11:53:12.830Z,23.61
2023-05-22T11:55:41.903Z,23.75
2023-05-22T11:58:08.954Z,23.98
2023-05-22T12:00:35.777Z,24.17
2023-05-22T12:03:02.760Z,24.31
2023-05-22T12:05:31.418Z,24.40
2023-05-22T12:07:58.326Z,24.47
2023-05-22T12:10:25.570Z,24.62
2023-05-22T12:12:54.357Z,24.75
2023-05-22T12:15:21.623Z,24.87
2023-05-22T12:17:48.657Z,24.96
2023-05-22T12:20:17.285Z,25.01
2023-05-22T12:22:44.392Z,25.00
2023-05-22T12:25:16.427Z,24.99
2023-05-22T12:27:45.569Z,25.03
2023-05-22T12:30:13.958Z,25.04
2023-05-22T12:32:41.883Z,25.09
2023-05-22T12:35:15.133Z,25.19
2023-05-22T12:37:48.235Z,25.27
2023-05-22T12:40:15.849Z,25.32
2023-05-22T12:42:45.055Z,25.32
2023-05-22T12:45:13.074Z,25.30
2023-05-22T12:47:40.601Z,25.33
2023-05-22T12:50:08.088Z,25.34
2023-05-22T12:52:36.389Z,25.28
2023-05-22T12:55:04.074Z,25.21
2023-05-22T12:57:31.378Z,25.09
2023-05-22T12:59:58.430Z,25.04
2023-05-22T13:02:26.323Z,25.08
2023-05-22T13:04:54.176Z,25.10
2023-05-22T13:07:21.262Z,25.11
2023-05-22T13:09:48.053Z,25.13
2023-05-22T13:12:15.029Z,25.08
2023-05-22T13:14:42.670Z,25.04
2023-05-22T13:17:10.461Z,24.99
2023-05-22T13:19:38.140Z,24.98
2023-05-22T13:22:07.171Z,24.96
2023-05-22T13:24:34.484Z,24.92
2023-05-22T13:27:02.067Z,24.93
2023-05-22T13:29:29.600Z,25.00
2023-05-22T13:31:56.949Z,25.09
2023-05-22T13:34:24.148Z,25.20
2023-05-22T13:36:51.203Z,25.27
2023-05-22T13:39:18.135Z,25.35
2023-05-22T13:41:44.905Z,25.35
2023-05-22T13:44:12.221Z,25.30
2023-05-22T13:46:40.906Z,25.24
2023-05-22T13:49:09.378Z,25.13
2023-05-22T13:51:37.769Z,25.05
2023-05-22T13:54:05.231Z,25.02
2023-05-22T13:56:33.199Z,25.03
2023-05-22T13:59:02.289Z,25.06
2023-05-22T14:01:30.217Z,25.09
2023-05-22T14:03:57.291Z,25.11
2023-05-22T14:06:25.576Z,25.15
2023-05-22T14:08:52.851Z,25.16
2023-05-22T14:11:19.577Z,25.12
2023-05-22T14:13:46.429Z,25.10
2023-05-22T14:16:13.505Z,25.09
2023-05-22T14:18:40.666Z,25.12
2023-05-22T14:21:07.851Z,25.07
2023-05-22T14:23:35.121Z,25.01
2023-05-22T14:26:02.061Z,24.94
2023-05-22T14:28:33.628Z,24.90
2023-05-22T14:31:00.813Z,24.87
2023-05-22T14:33:30.078Z,24.81
2023-05-22T14:35:57.065Z,24.82
2023-05-22T14:38:26.131Z,24.81
2023-05-22T14:40:53.055Z,24.83
2023-05-22T14:43:20.097Z,24.79
2023-05-22T14:45:47.087Z,24.76
2023-05-22T14:48:14.244Z,24.70
2023-05-22T14:50:41.188Z,24.64
2023-05-22T14:53:07.980Z,24.58
2023-05-22T14:55:35.456Z,24.52
2023-05-22T14:58:02.695Z,24.49
2023-05-22T15:00:29.961Z,24.43
2023-05-22T15:02:57.050Z,24.34
2023-05-22T15:05:26.157Z,24.21
2023-05-22T15:07:53.391Z,24.10
2023-05-22T15:10:20.182Z,23.98
2023-05-22T15:12:47.075Z,23.84
2023-05-22T15:15:13.816Z,23.73
2023-05-22T15:17:42.687Z,23.59
2023-05-22T15:20:10.777Z,23.49
2023-05-22T15:22:38.866Z,23.45
2023-05-22T15:25:07.328Z,23.44
2023-05-22T15:27:35.416Z,23.43
2023-05-22T15:30:04.038Z,23.41
2023-05-22T15:32:33.860Z,23.39
2023-05-22T15:35:01.133Z,23.33
2023-05-22T15:37:34.415Z,23.29
2023-05-22T15:40:06.146Z,23.26
2023-05-22T15:42:33.745Z,23.22
2023-05-22T15:45:01.838Z,23.15
2023-05-22T15:47:29.246Z,23.07
2023-05-22T15:49:56.108Z,23.03
2023-05-22T15:52:24.402Z,23.01
2023-05-22T15:54:53.232Z,22.97
2023-05-22T15:57:22.119Z,22.97
2023-05-22T15:59:50.979Z,22.97
2023-05-22T16:02:21.894Z,22.99
2023-05-22T16:04:50.030Z,23.00
2023-05-22T16:07:19.699Z,23.02
2023-05-22T16:09:47.571Z,23.00
2023-05-22T16:12:15.291Z,22.99
2023-05-22T16:14:43.038Z,22.94
2023-05-22T16:17:11.219Z,22.89
2023-05-22T16:19:38.995Z,22.84
2023-05-22T16:22:06.674Z,22.78
2023-05-22T16:24:34.429Z,22.72
2023-05-22T16:27:02.236Z,22.68
2023-05-22T16:29:32.522Z,22.63
2023-05-22T16:32:00.480Z,22.59
2023-05-22T16:34:29.694Z,22.54
2023-05-22T16:36:57.372Z,22.49
2023-05-22T16:39:26.158Z,22.44
2023-05-22T16:41:53.933Z,22.42
2023-05-22T16:44:21.779Z,22.38
2023-05-22T16:46:49.600Z,22.36
2023-05-22T16:49:17.139Z,22.32
2023-05-22T16:51:43.888Z,22.27
2023-05-22T16:54:11.406Z,22.21
2023-05-22T16:56:39.148Z,22.17
2023-05-22T16:59:06.827Z,22.11
2023-05-22T17:01:34.039Z,22.02
2023-05-22T17:04:01.964Z,21.94
2023-05-22T17:06:29.925Z,21.86
2023-05-22T17:08:57.032Z,21.80
2023-05-22T17:11:25.699Z,21.74
2023-05-22T17:13:53.159Z,21.66
2023-05-22T17:16:20.478Z,21.60
2023-05-22T17:18:47.655Z,21.54
2023-05-22T17:21:16.996Z,21.48
2023-05-22T17:23:43.747Z,21.43
2023-05-22T17:26:10.603Z,21.36
2023-05-22T17:28:37.531Z,21.30
2023-05-22T17:31:04.467Z,21.23
2023-05-22T17:33:31.526Z,21.17
2023-05-22T17:35:59.875Z,21.11
2023-05-22T17:38:26.795Z,21.04
2023-05-22T17:40:54.356Z,20.97
2023-05-22T17:43:21.937Z,20.91
2023-05-22T17:45:52.848Z,20.84
2023-05-22T17:48:26.640Z,20.78
2023-05-22T17:50:53.974Z,20.70
2023-05-22T17:53:20.866Z,20.63
2023-05-22T17:55:48.904Z,20.55
2023-05-22T17:58:16.454Z,20.48
2023-05-22T18:00:43.271Z,20.41
2023-05-22T18:03:10.908Z,20.32
2023-05-22T18:05:38.382Z,20.22
2023-05-22T18:08:05.160Z,20.13
2023-05-22T18:10:32.030Z,20.04
2023-05-22T18:12:58.772Z,19.92
2023-05-22T18:15:25.762Z,19.82
2023-05-22T18:17:55.544Z,19.72
2023-05-22T18:20:23.377Z,19.60
2023-05-22T18:22:50.598Z,19.50
2023-05-22T18:25:19.725Z,19.39
2023-05-22T18:27:46.481Z,19.28
2023-05-22T18:30:13.589Z,19.18
2023-05-22T18:32:40.645Z,19.08
2023-05-22T18:35:12.416Z,18.94
2023-05-22T18:37:41.146Z,18.82
2023-05-22T18:40:11.233Z,18.72
2023-05-22T18:42:42.731Z,18.59
2023-05-22T18:45:12.112Z,18.46
2023-05-22T18:47:42.562Z,18.32
2023-05-22T18:50:10.519Z,18.18
2023-05-22T18:52:39.472Z,18.04
2023-05-22T18:55:06.728Z,17.91
2023-05-22T18:57:34.124Z,17.81
2023-05-22T19:00:01.964Z,17.69
2023-05-22T19:02:28.874Z,17.59
2023-05-22T19:04:59.333Z,17.50
2023-05-22T19:07:27.271Z,17.39
2023-05-22T19:09:55.704Z,17.30
2023-05-22T19:12:24.279Z,17.21
2023-05-22T19:14:52.855Z,17.13
2023-05-22T19:17:20.241Z,17.04
2023-05-22T19:19:48.891Z,16.94
2023-05-22T19:22:18.930Z,16.83
2023-05-22T19:24:47.434Z,16.73
2023-05-22T19:27:16.672Z,16.63
2023-05-22T19:29:45.022Z,16.54
2023-05-22T19:32:15.452Z,16.44
2023-05-22T19:34:42.945Z,16.36
2023-05-22T19:37:11.351Z,16.27
2023-05-22T19:39:38.256Z,16.19
2023-05-22T19:42:08.699Z,16.10
2023-05-22T19:44:36.475Z,16.06
2023-05-22T19:47:05.061Z,16.00
2023-05-22T19:49:36.688Z,15.96
2023-05-22T19:52:05.495Z,15.89
2023-05-22T19:54:35.751Z,15.81
2023-05-22T19:57:03.668Z,15.73
2023-05-22T19:59:30.684Z,15.66
2023-05-22T20:01:58.312Z,15.59
2023-05-22T20:04:26.689Z,15.49
2023-05-22T20:06:58.220Z,15.39
2023-05-22T20:09:26.933Z,15.32
2023-05-22T20:11:57.093Z,15.27
2023-05-22T20:14:24.960Z,15.22
2023-05-22T20:16:54.253Z,15.16
2023-05-22T20:19:24.127Z,15.08
2023-05-22T20:21:58.352Z,15.03
2023-05-22T20:24:26.757Z,14.97
2023-05-22T20:26:54.278Z,14.95
2023-05-22T20:29:21.437Z,14.90
2023-05-22T20:31:50.335Z,14.86
2023-05-22T20:34:20.586Z,14.80
2023-05-22T20:36:50.538Z,14.74
2023-05-22T20:39:18.407Z,14.67
2023-05-22T20:41:50.603Z,14.62
2023-05-22T20:44:23.292Z,14.57
2023-05-22T20:46:55.337Z,14.52
2023-05-22T20:49:24.512Z,14.48
2023-05-22T20:51:54.247Z,14.43
2023-05-22T20:54:21.105Z,14.40
2023-05-22T20:56:48.955Z,14.39
2023-05-22T20:59:18.254Z,14.39
2023-05-22T21:01:45.970Z,14.39
2023-05-22T21:04:13.565Z,14.38
2023-05-22T21:06:42.892Z,14.38
2023-05-22T21:09:11.444Z,14.36
2023-05-22T21:11:39.059Z,14.33
2023-05-22T21:14:06.532Z,14.31
2023-05-22T21:16:35.312Z,14.29
2023-05-22T21:19:04.258Z,14.26
2023-05-22T21:21:32.257Z,14.21
2023-05-22T21:23:59.949Z,14.15
2023-05-22T21:26:27.215Z,14.12
2023-05-22T21:28:54.831Z,14.10
2023-05-22T21:31:22.893Z,14.09
2023-05-22T21:33:50.635Z,14.09
2023-05-22T21:36:18.286Z,14.09
2023-05-22T21:38:46.609Z,14.10
2023-05-22T21:41:15.924Z,14.10
2023-05-22T21:43:43.464Z,14.10
2023-05-22T21:46:10.539Z,14.10
2023-05-22T21:48:38.254Z,14.12
2023-05-22T21:51:06.523Z,14.14
2023-05-22T21:53:34.191Z,14.16
2023-05-22T21:56:01.767Z,14.19
2023-05-22T21:58:29.514Z,14.21
2023-05-22T22:00:57.687Z,14.22
2023-05-22T22:03:25.717Z,14.22
2023-05-22T22:05:53.434Z,14.21
2023-05-22T22:08:21.468Z,14.18
2023-05-22T22:10:49.466Z,14.13
2023-05-22T22:13:16.937Z,14.12
2023-05-22T22:15:44.522Z,14.10
2023-05-22T22:18:14.995Z,14.06
2023-05-22T22:20:45.420Z,14.01
2023-05-22T22:23:13.717Z,13.98
2023-05-22T22:25:40.822Z,13.96
2023-05-22T22:28:08.767Z,13.93
2023-05-22T22:30:36.523Z,13.91
2023-05-22T22:33:04.410Z,13.88
2023-05-22T22:35:32.498Z,13.85
2023-05-22T22:38:00.160Z,13.82
2023-05-22T22:40:27.792Z,13.79
2023-05-22T22:42:55.400Z,13.76
2023-05-22T22:45:23.124Z,13.73
2023-05-22T22:47:53.194Z,13.71
2023-05-22T22:50:21.516Z,13.67
2023-05-22T22:52:49.944Z,13.65
2023-05-22T22:55:18.630Z,13.61
2023-05-22T22:57:50.262Z,13.54
2023-05-22T23:00:19.150Z,13.49
2023-05-22T23:02:46.564Z,13.43
2023-05-22T23:05:16.291Z,13.40
2023-05-22T23:07:44.396Z,13.36
2023-05-22T23:10:11.840Z,13.33
2023-05-22T23:12:39.520Z,13.28
2023-05-22T23:15:09.140Z,13.24
2023-05-22T23:17:38.286Z,13.19
2023-05-22T23:20:07.015Z,13.15
2023-05-22T23:22:35.229Z,13.11
2023-05-22T23:25:04.538Z,13.08
2023-05-22T23:27:32.628Z,13.05
2023-05-22T23:29:59.651Z,13.05
2023-05-22T23:32:27.560Z,13.03
2023-05-22T23:34:55.541Z,13.04
2023-05-22T23:37:22.997Z,13.03
2023-05-22T23:39:50.568Z,13.01
2023-05-22T23:42:18.338Z,12.99
2023-05-22T23:44:46.219Z,12.96
2023-05-22T23:47:13.855Z,12.91
2023-05-22T23:49:41.469Z,12.85
2023-05-22T23:52:09.432Z,12.81
2023-05-22T23:54:37.342Z,12.77
2023-05-22T23:57:05.014Z,12.74
2023-05-22T23:59:32.916Z,12.72
